createdAt,value
2019-02-12T00:00:06.062Z,57.76
2019-02-12T00:02:34.518Z,57.75
2019-02-12T00:05:04.975Z,57.72
2019-02-12T00:07:33.031Z,57.72
2019-02-12T00:10:01.082Z,57.75
2019-02-12T00:12:29.154Z,57.78
2019-02-12T00:14:57.224Z,57.79
2019-02-12T00:17:25.293Z,57.78
2019-02-12T00:19:53.399Z,57.79
2019-02-12T00:22:21.412Z,57.84
2019-02-12T00:24:49.528Z,57.88
2019-02-12T00:27:18.091Z,57.91
2019-02-12T00:29:48.572Z,57.93
2019-02-12T00:32:16.696Z,57.93
2019-02-12T00:34:44.791Z,57.93
2019-02-12T00:37:12.829Z,57.93
2019-02-12T00:39:41.184Z,57.95
2019-02-12T00:42:10.600Z,57.94
2019-02-12T00:44:38.678Z,57.94
2019-02-12T00:47:06.723Z,57.91
2019-02-12T00:49:34.788Z,57.93
2019-02-12T00:52:02.842Z,57.94
2019-02-12T00:54:30.871Z,57.94
2019-02-12T00:56:58.944Z,57.99
2019-02-12T00:59:26.992Z,58.00
2019-02-12T01:01:55.366Z,57.99
2019-02-12T01:04:23.704Z,58.00
2019-02-12T01:06:51.801Z,58.02
2019-02-12T01:09:19.841Z,58.01
2019-02-12T01:11:47.913Z,58.03
2019-02-12T01:14:16.548Z,58.05
2019-02-12T01:16:44.629Z,58.08
2019-02-12T01:19:13.194Z,58.11
2019-02-12T01:21:41.284Z,58.11
2019-02-12T01:24:11.897Z,58.13
2019-02-12T01:26:39.994Z,58.12
2019-02-12T01:29:08.056Z,58.11
2019-02-12T01:31:36.584Z,58.12
2019-02-12T01:34:04.961Z,58.17
2019-02-12T01:36:33.055Z,58.15
2019-02-12T01:39:01.112Z,58.15
2019-02-12T01:41:31.385Z,58.19
2019-02-12T01:43:59.403Z,58.19
2019-02-12T01:46:27.455Z,58.17
2019-02-12T01:48:55.484Z,58.15
2019-02-12T01:51:23.538Z,58.16
2019-02-12T01:53:52.037Z,58.13
2019-02-12T01:56:20.111Z,58.11
2019-02-12T01:58:48.485Z,58.09
2019-02-12T02:01:16.554Z,58.08
2019-02-12T02:03:44.663Z,58.08
2019-02-12T02:06:12.767Z,58.07
2019-02-12T02:08:40.788Z,58.11
2019-02-12T02:11:08.866Z,58.13
2019-02-12T02:13:36.940Z,58.15
2019-02-12T02:16:05.024Z,58.15
2019-02-12T02:18:33.045Z,58.15
2019-02-12T02:21:01.368Z,58.15
2019-02-12T02:23:29.385Z,58.13
2019-02-12T02:25:57.498Z,58.13
2019-02-12T02:28:26.323Z,58.11
2019-02-12T02:30:54.404Z,58.10
2019-02-12T02:33:22.469Z,58.10
2019-02-12T02:35:50.975Z,58.12
2019-02-12T02:38:19.046Z,58.13
2019-02-12T02:40:47.131Z,58.14
2019-02-12T02:43:15.199Z,58.16
2019-02-12T02:45:43.225Z,58.19
2019-02-12T02:48:11.370Z,58.19
2019-02-12T02:50:39.731Z,58.19
2019-02-12T02:53:07.846Z,58.20
2019-02-12T02:55:35.895Z,58.20
2019-02-12T02:58:03.956Z,58.20
2019-02-12T03:00:32.097Z,58.19
2019-02-12T03:03:00.238Z,58.17
2019-02-12T03:05:28.466Z,58.15
2019-02-12T03:07:56.968Z,58.17
2019-02-12T03:10:25.024Z,58.17
2019-02-12T03:12:53.109Z,58.17
2019-02-12T03:15:21.155Z,58.15
2019-02-12T03:17:49.308Z,58.15
2019-02-12T03:20:17.368Z,58.13
2019-02-12T03:22:45.871Z,58.14
2019-02-12T03:25:13.909Z,58.17
2019-02-12T03:27:42.049Z,58.16
2019-02-12T03:30:10.635Z,58.18
2019-02-12T03:32:39.023Z,58.24
2019-02-12T03:35:07.534Z,58.25
2019-02-12T03:37:35.641Z,58.25
2019-02-12T03:40:05.558Z,58.28
2019-02-12T03:42:34.486Z,58.28
2019-02-12T03:45:02.894Z,58.24
2019-02-12T03:47:31.302Z,58.27
2019-02-12T03:49:59.417Z,58.35
2019-02-12T03:52:27.503Z,58.36
2019-02-12T03:54:55.890Z,58.42
2019-02-12T03:57:24.129Z,58.43
2019-02-12T03:59:52.580Z,58.44
2019-02-12T04:02:20.654Z,58.44
2019-02-12T04:04:48.754Z,58.45
2019-02-12T04:07:16.832Z,58.47
2019-02-12T04:09:44.948Z,58.49
2019-02-12T04:12:12.998Z,58.49
2019-02-12T04:14:41.091Z,58.50
2019-02-12T04:17:09.159Z,58.48
2019-02-12T04:19:37.230Z,58.48
2019-02-12T04:22:05.334Z,58.51
2019-02-12T04:24:33.837Z,58.50
2019-02-12T04:27:02.787Z,58.49
2019-02-12T04:29:32.266Z,58.45
2019-02-12T04:32:00.359Z,58.44
2019-02-12T04:34:28.508Z,58.47
2019-02-12T04:36:56.598Z,58.49
2019-02-12T04:39:24.694Z,58.51
2019-02-12T04:41:52.760Z,58.50
2019-02-12T04:44:21.006Z,58.49
2019-02-12T04:46:49.058Z,58.48
2019-02-12T04:49:17.172Z,58.46
2019-02-12T04:51:45.277Z,58.44
2019-02-12T04:54:13.369Z,58.43
2019-02-12T04:56:41.456Z,58.47
2019-02-12T04:59:09.897Z,58.53
2019-02-12T05:01:38.117Z,58.55
2019-02-12T05:04:08.373Z,58.54
2019-02-12T05:06:37.164Z,58.53
2019-02-12T05:09:19.530Z,58.52
2019-02-12T05:12:02.731Z,58.52
2019-02-12T05:14:30.820Z,58.55
2019-02-12T05:16:59.294Z,58.57
2019-02-12T05:19:27.397Z,58.61
2019-02-12T05:21:55.505Z,58.62
2019-02-12T05:24:36.632Z,58.63
2019-02-12T05:27:05.105Z,58.64
2019-02-12T05:29:33.507Z,58.62
2019-02-12T05:32:01.588Z,58.62
2019-02-12T05:34:30.037Z,58.65
2019-02-12T05:36:59.798Z,58.67
2019-02-12T05:39:28.044Z,58.66
2019-02-12T05:41:56.188Z,58.70
2019-02-12T05:44:24.262Z,58.73
2019-02-12T05:46:52.585Z,58.74
2019-02-12T05:49:22.418Z,58.74
2019-02-12T05:51:50.462Z,58.73
2019-02-12T05:54:18.525Z,58.72
2019-02-12T05:56:46.597Z,58.74
2019-02-12T05:59:14.679Z,58.75
2019-02-12T06:01:42.770Z,58.77
2019-02-12T06:04:10.888Z,58.75
2019-02-12T06:06:38.957Z,58.75
2019-02-12T06:09:07.155Z,58.73
2019-02-12T06:11:35.539Z,58.71
2019-02-12T06:14:03.630Z,58.70
2019-02-12T06:16:31.695Z,58.69
2019-02-12T06:18:59.739Z,58.68
2019-02-12T06:21:27.798Z,58.67
2019-02-12T06:23:55.867Z,58.66
2019-02-12T06:26:24.347Z,58.64
2019-02-12T06:28:52.429Z,58.63
2019-02-12T06:31:20.490Z,58.68
2019-02-12T06:33:48.930Z,58.72
2019-02-12T06:36:16.996Z,58.76
2019-02-12T06:38:45.428Z,58.76
2019-02-12T06:41:13.823Z,58.80
2019-02-12T06:43:41.895Z,58.82
2019-02-12T06:46:09.966Z,58.84
2019-02-12T06:48:38.227Z,58.91
2019-02-12T06:51:06.307Z,58.97
2019-02-12T06:53:35.489Z,59.00
2019-02-12T06:56:03.587Z,59.00
2019-02-12T06:58:32.331Z,59.00
2019-02-12T07:01:00.400Z,59.00
2019-02-12T07:04:10.817Z,58.97
2019-02-12T07:07:47.504Z,58.98
2019-02-12T07:10:32.214Z,58.99
2019-02-12T07:13:36.793Z,59.00
2019-02-12T07:16:47.447Z,59.07
2019-02-12T07:20:01.327Z,59.09
2019-02-12T07:23:35.716Z,59.08
2019-02-12T07:26:54.044Z,59.10
2019-02-12T07:30:01.129Z,59.13
2019-02-12T07:32:46.068Z,59.18
2019-02-12T07:36:15.472Z,59.29
2019-02-12T07:39:25.306Z,59.32
2019-02-12T07:42:51.378Z,59.32
2019-02-12T07:46:19.609Z,59.35
2019-02-12T07:49:29.119Z,59.39
2019-02-12T07:52:44.712Z,59.40
2019-02-12T07:56:19.245Z,59.42
2019-02-12T07:59:31.766Z,59.46
2019-02-12T08:03:13.211Z,59.47
2019-02-12T08:06:54.647Z,59.52
2019-02-12T08:10:29.448Z,59.54
2019-02-12T08:13:51.602Z,59.54
2019-02-12T08:16:46.457Z,59.55
2019-02-12T08:20:34.078Z,59.54
2019-02-12T08:24:08.706Z,59.51
2019-02-12T08:27:36.885Z,59.41
2019-02-12T08:30:41.272Z,59.33
2019-02-12T08:34:01.729Z,59.33
2019-02-12T08:37:10.009Z,59.37
2019-02-12T08:40:16.527Z,59.37
2019-02-12T08:43:24.680Z,59.30
2019-02-12T08:46:54.313Z,59.30
2019-02-12T08:49:49.282Z,59.27
2019-02-12T08:53:24.708Z,59.21
2019-02-12T08:56:22.238Z,59.26
2019-02-12T08:59:47.238Z,59.23
2019-02-12T09:03:09.191Z,59.21
2019-02-12T09:06:39.027Z,59.23
2019-02-12T09:10:02.020Z,59.29
2019-02-12T09:12:55.878Z,59.36
2019-02-12T09:16:37.948Z,59.35
2019-02-12T09:20:17.387Z,59.44
2019-02-12T09:24:03.456Z,59.41
2019-02-12T09:27:14.489Z,59.34
2019-02-12T09:30:27.754Z,59.34
2019-02-12T09:33:28.487Z,59.32
2019-02-12T09:36:48.764Z,59.30
2019-02-12T09:40:24.242Z,59.30
2019-02-12T09:44:01.487Z,59.25
2019-02-12T09:47:46.295Z,59.17
2019-02-12T09:51:20.501Z,59.13
2019-02-12T09:55:01.492Z,59.13
2019-02-12T09:58:30.131Z,59.18
2019-02-12T10:01:19.801Z,59.15
2019-02-12T10:04:28.654Z,59.00
2019-02-12T10:07:59.008Z,58.93
2019-02-12T10:11:47.130Z,58.88
2019-02-12T10:15:10.185Z,58.72
2019-02-12T10:18:52.456Z,58.56
2019-02-12T10:22:43.167Z,58.49
2019-02-12T10:25:40.321Z,58.29
2019-02-12T10:29:21.758Z,58.02
2019-02-12T10:31:49.431Z,57.99
2019-02-12T10:34:17.464Z,57.80
2019-02-12T10:36:45.507Z,57.55
2019-02-12T10:39:15.054Z,57.27
2019-02-12T10:41:43.128Z,57.09
2019-02-12T10:44:11.640Z,57.12
2019-02-12T10:46:40.878Z,57.08
2019-02-12T10:49:09.282Z,56.82
2019-02-12T10:51:37.376Z,56.72
2019-02-12T10:54:05.740Z,56.61
2019-02-12T10:56:34.162Z,56.56
2019-02-12T10:59:02.231Z,56.53
2019-02-12T11:01:30.283Z,56.53
2019-02-12T11:03:59.062Z,56.43
2019-02-12T11:06:27.201Z,56.31
2019-02-12T11:08:55.248Z,56.13
2019-02-12T11:11:23.413Z,56.03
2019-02-12T11:13:51.538Z,56.01
2019-02-12T11:16:19.621Z,56.04
2019-02-12T11:18:48.047Z,56.06
2019-02-12T11:21:16.154Z,56.03
2019-02-12T11:23:44.203Z,55.90
2019-02-12T11:26:12.295Z,55.67
2019-02-12T11:28:41.181Z,55.44
2019-02-12T11:31:09.243Z,55.28
2019-02-12T11:33:37.500Z,55.20
2019-02-12T11:36:05.680Z,55.22
2019-02-12T11:38:34.294Z,55.25
2019-02-12T11:41:02.381Z,55.17
2019-02-12T11:43:30.775Z,55.09
2019-02-12T11:45:58.839Z,54.98
2019-02-12T11:48:26.878Z,54.85
2019-02-12T11:50:54.945Z,54.80
2019-02-12T11:53:23.854Z,54.81
2019-02-12T11:55:51.932Z,54.82
2019-02-12T11:58:19.963Z,54.80
2019-02-12T12:00:52.745Z,54.79
2019-02-12T12:03:21.170Z,54.76
2019-02-12T12:05:49.234Z,54.72
2019-02-12T12:08:17.321Z,54.73
2019-02-12T12:10:45.373Z,54.78
2019-02-12T12:13:13.414Z,54.92
2019-02-12T12:15:41.479Z,55.07
2019-02-12T12:18:09.603Z,55.15
2019-02-12T12:20:37.641Z,55.11
2019-02-12T12:23:05.687Z,55.06
2019-02-12T12:25:33.872Z,55.00
2019-02-12T12:28:01.944Z,54.97
2019-02-12T12:30:29.999Z,55.08
2019-02-12T12:32:58.048Z,55.12
2019-02-12T12:35:26.111Z,55.04
2019-02-12T12:37:54.179Z,55.04
2019-02-12T12:40:22.534Z,55.05
2019-02-12T12:42:50.588Z,54.94
2019-02-12T12:45:18.781Z,54.79
2019-02-12T12:47:46.838Z,54.68
2019-02-12T12:50:14.918Z,54.78
2019-02-12T12:52:43.054Z,54.94
2019-02-12T12:55:11.254Z,54.87
2019-02-12T12:57:42.020Z,54.77
2019-02-12T13:00:10.917Z,54.56
2019-02-12T13:02:40.549Z,54.29
2019-02-12T13:05:08.952Z,54.10
2019-02-12T13:07:38.070Z,53.94
2019-02-12T13:10:09.352Z,53.62
2019-02-12T13:12:47.311Z,53.25
2019-02-12T13:15:17.714Z,52.81
2019-02-12T13:17:45.777Z,52.30
2019-02-12T13:20:22.850Z,51.89
2019-02-12T13:22:51.287Z,51.46
2019-02-12T13:25:19.893Z,50.78
2019-02-12T13:27:47.981Z,50.12
2019-02-12T13:30:16.167Z,49.79
2019-02-12T13:32:44.335Z,49.55
2019-02-12T13:35:12.818Z,49.36
2019-02-12T13:37:40.905Z,49.33
2019-02-12T13:40:10.335Z,49.22
2019-02-12T13:42:38.603Z,49.20
2019-02-12T13:45:09.615Z,49.21
2019-02-12T13:47:39.447Z,49.30
2019-02-12T13:50:08.512Z,49.45
2019-02-12T13:52:36.629Z,49.61
2019-02-12T13:55:06.122Z,49.75
2019-02-12T13:57:34.392Z,49.90
2019-02-12T14:00:05.138Z,49.99
2019-02-12T14:02:34.846Z,50.05
2019-02-12T14:05:03.951Z,50.14
2019-02-12T14:07:32.369Z,50.23
2019-02-12T14:10:01.768Z,50.47
2019-02-12T14:12:32.005Z,50.74
2019-02-12T14:15:00.259Z,50.86
2019-02-12T14:17:28.456Z,50.85
2019-02-12T14:19:56.860Z,50.95
2019-02-12T14:22:24.974Z,50.92
2019-02-12T14:24:53.130Z,50.89
2019-02-12T14:27:22.370Z,50.80
2019-02-12T14:29:50.516Z,50.66
2019-02-12T14:32:18.616Z,50.48
2019-02-12T14:34:46.647Z,50.41
2019-02-12T14:37:14.750Z,50.41
2019-02-12T14:39:42.820Z,50.38
2019-02-12T14:42:10.905Z,50.30
2019-02-12T14:44:38.966Z,50.28
2019-02-12T14:47:07.166Z,50.24
2019-02-12T14:49:35.226Z,50.29
2019-02-12T14:52:03.648Z,50.41
2019-02-12T14:54:31.697Z,50.50
2019-02-12T14:56:59.795Z,50.56
2019-02-12T14:59:27.862Z,50.61
2019-02-12T15:01:56.107Z,50.63
2019-02-12T15:04:24.163Z,50.65
2019-02-12T15:06:52.643Z,50.70
2019-02-12T15:09:21.618Z,50.75
2019-02-12T15:11:50.304Z,50.76
2019-02-12T15:14:18.463Z,50.70
2019-02-12T15:16:46.572Z,50.62
2019-02-12T15:19:16.521Z,50.58
2019-02-12T15:21:44.664Z,50.61
2019-02-12T15:24:12.850Z,50.65
2019-02-12T15:26:41.516Z,50.68
2019-02-12T15:29:10.098Z,50.68
2019-02-12T15:31:39.710Z,50.67
2019-02-12T15:34:07.926Z,50.75
2019-02-12T15:36:36.573Z,50.79
2019-02-12T15:39:06.450Z,50.83
2019-02-12T15:41:34.770Z,50.84
2019-02-12T15:44:03.368Z,50.90
2019-02-12T15:46:31.538Z,50.97
2019-02-12T15:48:59.618Z,50.99
2019-02-12T15:51:27.769Z,51.01
2019-02-12T15:53:55.976Z,51.04
2019-02-12T15:56:24.162Z,51.00
2019-02-12T15:58:53.682Z,51.05
2019-02-12T16:01:21.993Z,51.10
2019-02-12T16:03:50.241Z,51.17
2019-02-12T16:06:19.289Z,51.24
2019-02-12T16:08:48.792Z,51.33
2019-02-12T16:11:19.068Z,51.36
2019-02-12T16:13:47.919Z,51.36
2019-02-12T16:16:16.328Z,51.32
2019-02-12T16:18:46.021Z,51.30
2019-02-12T16:21:14.858Z,51.26
2019-02-12T16:23:43.322Z,51.27
2019-02-12T16:26:11.477Z,51.35
2019-02-12T16:28:40.157Z,51.42
2019-02-12T16:31:08.234Z,51.56
2019-02-12T16:33:36.333Z,51.59
2019-02-12T16:36:04.426Z,51.60
2019-02-12T16:38:32.518Z,51.54
2019-02-12T16:41:01.064Z,51.47
2019-02-12T16:43:29.206Z,51.42
2019-02-12T16:46:05.400Z,51.36
2019-02-12T16:48:33.506Z,51.35
2019-02-12T16:51:01.540Z,51.33
2019-02-12T16:53:29.744Z,51.34
2019-02-12T16:55:57.895Z,51.33
2019-02-12T16:58:25.977Z,51.38
2019-02-12T17:00:54.078Z,51.40
2019-02-12T17:03:22.202Z,51.38
2019-02-12T17:05:50.303Z,51.39
2019-02-12T17:08:18.459Z,51.38
2019-02-12T17:10:46.707Z,51.38
2019-02-12T17:13:14.863Z,51.36
2019-02-12T17:15:43.021Z,51.37
2019-02-12T17:18:12.244Z,51.37
2019-02-12T17:20:40.343Z,51.39
2019-02-12T17:23:08.476Z,51.46
2019-02-12T17:25:36.654Z,51.52
2019-02-12T17:28:04.933Z,51.58
2019-02-12T17:30:33.084Z,51.67
2019-02-12T17:33:01.272Z,51.73
2019-02-12T17:35:29.475Z,51.75
2019-02-12T17:37:57.639Z,51.76
2019-02-12T17:40:25.762Z,51.74
2019-02-12T17:42:55.555Z,51.74
2019-02-12T17:45:23.827Z,51.83
2019-02-12T17:47:52.007Z,51.96
2019-02-12T17:50:20.488Z,52.07
2019-02-12T17:52:48.757Z,52.14
2019-02-12T17:55:19.660Z,52.16
2019-02-12T17:57:48.855Z,52.21
2019-02-12T18:00:19.557Z,52.22
2019-02-12T18:02:47.779Z,52.26
2019-02-12T18:05:15.923Z,52.32
2019-02-12T18:07:44.208Z,52.37
2019-02-12T18:10:12.625Z,52.44
2019-02-12T18:12:40.790Z,52.48
2019-02-12T18:15:09.946Z,52.52
2019-02-12T18:17:38.469Z,52.58
2019-02-12T18:20:07.834Z,52.64
2019-02-12T18:22:35.969Z,52.70
2019-02-12T18:25:07.570Z,52.75
2019-02-12T18:27:35.634Z,52.80
2019-02-12T18:30:05.901Z,52.86
2019-02-12T18:32:34.347Z,52.89
2019-02-12T18:35:03.248Z,52.92
2019-02-12T18:37:31.330Z,52.95
2019-02-12T18:39:59.432Z,52.99
2019-02-12T18:42:27.632Z,53.01
2019-02-12T18:44:55.733Z,53.02
2019-02-12T18:47:24.046Z,53.08
2019-02-12T18:49:52.135Z,53.14
2019-02-12T18:52:23.009Z,53.17
2019-02-12T18:54:51.376Z,53.19
2019-02-12T18:57:20.352Z,53.20
2019-02-12T18:59:48.692Z,53.23
2019-02-12T19:02:17.341Z,53.27
2019-02-12T19:04:45.719Z,53.28
2019-02-12T19:07:13.840Z,53.29
2019-02-12T19:09:43.530Z,53.31
2019-02-12T19:12:11.688Z,53.34
2019-02-12T19:14:39.903Z,53.38
2019-02-12T19:17:08.104Z,53.44
2019-02-12T19:19:36.349Z,53.48
2019-02-12T19:22:04.528Z,53.52
2019-02-12T19:24:32.807Z,53.61
2019-02-12T19:27:01.396Z,53.61
2019-02-12T19:29:29.473Z,53.64
2019-02-12T19:31:59.322Z,53.68
2019-02-12T19:34:27.636Z,53.72
2019-02-12T19:36:56.029Z,53.73
2019-02-12T19:39:25.362Z,53.73
2019-02-12T19:41:53.372Z,53.76
2019-02-12T19:44:21.629Z,53.77
2019-02-12T19:46:49.726Z,53.79
2019-02-12T19:49:18.151Z,53.84
2019-02-12T19:51:46.316Z,53.88
2019-02-12T19:54:15.170Z,53.89
2019-02-12T19:56:43.959Z,53.93
2019-02-12T19:59:12.103Z,53.92
2019-02-12T20:01:40.621Z,53.96
2019-02-12T20:04:08.746Z,53.98
2019-02-12T20:06:38.039Z,54.02
2019-02-12T20:09:13.347Z,54.04
2019-02-12T20:11:41.676Z,54.06
2019-02-12T20:14:09.733Z,54.11
2019-02-12T20:16:38.411Z,54.15
2019-02-12T20:19:06.760Z,54.21
2019-02-12T20:21:34.954Z,54.25
2019-02-12T20:24:04.871Z,54.28
2019-02-12T20:26:33.145Z,54.27
2019-02-12T20:29:03.289Z,54.29
2019-02-12T20:31:32.023Z,54.33
2019-02-12T20:34:00.203Z,54.37
2019-02-12T20:36:28.332Z,54.38
2019-02-12T20:38:56.503Z,54.39
2019-02-12T20:41:24.814Z,54.41
2019-02-12T20:43:52.869Z,54.44
2019-02-12T20:46:21.174Z,54.46
2019-02-12T20:48:49.343Z,54.48
2019-02-12T20:51:17.460Z,54.51
2019-02-12T20:53:46.609Z,54.51
2019-02-12T20:56:14.710Z,54.53
2019-02-12T20:58:42.759Z,54.58
2019-02-12T21:01:11.097Z,54.59
2019-02-12T21:03:39.509Z,54.62
2019-02-12T21:06:09.278Z,54.65
2019-02-12T21:08:37.528Z,54.65
2019-02-12T21:11:06.889Z,54.69
2019-02-12T21:13:35.046Z,54.70
2019-02-12T21:16:03.247Z,54.73
2019-02-12T21:18:31.405Z,54.74
2019-02-12T21:21:01.302Z,54.79
2019-02-12T21:23:29.671Z,54.83
2019-02-12T21:25:57.953Z,54.87
2019-02-12T21:28:26.118Z,54.89
2019-02-12T21:30:54.237Z,54.93
2019-02-12T21:33:22.460Z,54.97
2019-02-12T21:35:51.801Z,54.98
2019-02-12T21:38:20.401Z,54.98
2019-02-12T21:40:48.554Z,54.97
2019-02-12T21:43:16.937Z,54.99
2019-02-12T21:45:45.162Z,55.00
2019-02-12T21:48:13.684Z,55.02
2019-02-12T21:50:42.953Z,55.05
2019-02-12T21:53:11.400Z,55.05
2019-02-12T21:55:39.536Z,55.09
2019-02-12T21:58:09.231Z,55.10
2019-02-12T22:00:37.327Z,55.11
2019-02-12T22:03:05.538Z,55.14
2019-02-12T22:05:33.623Z,55.14
2019-02-12T22:08:01.823Z,55.18
2019-02-12T22:10:30.052Z,55.19
2019-02-12T22:12:58.344Z,55.20
2019-02-12T22:15:26.442Z,55.22
2019-02-12T22:17:54.520Z,55.24
2019-02-12T22:20:22.961Z,55.26
2019-02-12T22:22:51.122Z,55.31
2019-02-12T22:25:19.391Z,55.35
2019-02-12T22:27:47.653Z,55.39
2019-02-12T22:30:18.087Z,55.42
2019-02-12T22:32:47.599Z,55.46
2019-02-12T22:35:15.667Z,55.48
2019-02-12T22:37:43.772Z,55.51
2019-02-12T22:40:12.836Z,55.56
2019-02-12T22:42:40.928Z,55.57
2019-02-12T22:45:12.920Z,55.59
2019-02-12T22:47:41.102Z,55.60
2019-02-12T22:50:11.939Z,55.59
2019-02-12T22:52:40.469Z,55.60
2019-02-12T22:55:08.654Z,55.59
2019-02-12T22:57:36.742Z,55.62
2019-02-12T23:00:30.452Z,55.65
2019-02-12T23:03:00.448Z,55.71
2019-02-12T23:05:28.563Z,55.68
2019-02-12T23:07:58.261Z,55.70
2019-02-12T23:10:26.305Z,55.72
2019-02-12T23:12:56.011Z,55.72
2019-02-12T23:15:25.663Z,55.73
2019-02-12T23:17:53.755Z,55.74
2019-02-12T23:20:21.817Z,55.75
2019-02-12T23:22:51.579Z,55.79
2019-02-12T23:25:19.650Z,55.83
2019-02-12T23:27:47.877Z,55.82
2019-02-12T23:30:16.026Z,55.84
2019-02-12T23:32:44.415Z,55.84
2019-02-12T23:35:13.522Z,55.86
2019-02-12T23:37:41.701Z,55.88
2019-02-12T23:40:09.777Z,55.88
2019-02-12T23:42:37.961Z,55.91
2019-02-12T23:45:07.058Z,55.94
2019-02-12T23:47:35.134Z,56.00
2019-02-12T23:50:03.632Z,56.04
2019-02-12T23:52:31.728Z,56.04
2019-02-12T23:54:59.905Z,56.06
2019-02-12T23:57:29.360Z,56.08
2019-02-12T23:59:57.424Z,56.10
